Time;durP1;ratioP1;P1;durP2;ratioP2;P2;SDS_P1;SDS_P2;PMS_P1;PMS_P2;Temp;Humidity;BMP_temperature;BMP_pressure;BME280_temperature;BME280_humidity;BME280_pressure;Samples;Min_cycle;Max_cycle;Signal;HPM_P1;HPM_P2
2021/03/17 00:02:37;;;;;;;4.70;4.22;;;;;;;29.08;50.98;101022.69;4987902;28;66658;-36
2021/03/17 00:05:31;;;;;;;7.03;3.90;;;;;;;29.11;51.31;101027.69;4986061;28;69887;-34
2021/03/17 00:08:21;;;;;;;6.20;4.15;;;;;;;29.16;51.64;101031.44;4981252;28;66195;-34
2021/03/17 00:11:10;;;;;;;12.70;6.95;;;;;;;29.25;52.00;101034.78;4990643;28;69648;-34
2021/03/17 00:14:18;;;;;;;18.00;9.32;;;;;;;29.37;53.28;101033.13;4990569;28;66577;-35
2021/03/17 00:17:06;;;;;;;48.40;9.43;;;;;;;29.43;53.69;101038.75;4996307;28;69295;-34
2021/03/17 00:19:55;;;;;;;34.45;13.15;;;;;;;29.42;54.32;101045.19;5006154;28;65510;-35
2021/03/17 00:22:44;;;;;;;22.95;13.35;;;;;;;29.39;55.31;101047.28;4982320;28;69361;-36
2021/03/17 00:25:34;;;;;;;31.13;11.57;;;;;;;29.48;54.60;101047.91;4993848;28;65561;-35
2021/03/17 00:28:27;;;;;;;19.30;10.60;;;;;;;29.49;55.46;101059.56;4997376;28;69338;-34
2021/03/17 00:31:15;;;;;;;20.38;10.95;;;;;;;29.51;55.56;101062.88;4999421;28;65405;-40
2021/03/17 00:34:04;;;;;;;21.83;10.05;;;;;;;29.49;55.63;101062.25;4991904;28;69852;-33
2021/03/17 00:36:52;;;;;;;17.65;9.90;;;;;;;29.51;55.49;101060.19;4981036;28;65159;-33
2021/03/17 00:39:40;;;;;;;16.15;8.60;;;;;;;29.55;55.27;101062.25;4998497;28;70133;-33
2021/03/17 00:42:29;;;;;;;8.63;7.82;;;;;;;29.58;55.10;101063.69;4993364;28;66206;-33
2021/03/17 00:45:17;;;;;;;12.35;7.90;;;;;;;29.62;54.46;101068.50;4990033;28;70519;-33
2021/03/17 00:48:05;;;;;;;15.48;7.78;;;;;;;29.61;54.94;101071.41;4993150;28;65463;-33
2021/03/17 00:50:35;;;;;;;13.65;6.85;;;;;;;29.60;55.05;101080.56;4997305;28;69699;-34
2021/03/17 00:53:05;;;;;;;9.07;6.45;;;;;;;29.63;54.30;101082.88;4990797;28;66271;-32
2021/03/17 00:55:35;;;;;;;8.07;5.90;;;;;;;29.65;53.80;101082.69;4989528;28;70062;-35
2021/03/17 00:58:26;;;;;;;7.03;6.32;;;;;;;29.66;54.19;101093.28;4969542;28;64263;-33
2021/03/17 01:00:56;;;;;;;9.38;5.85;;;;;;;29.67;54.21;101092.25;4994541;28;69949;-32
2021/03/17 01:03:26;;;;;;;6.70;5.38;;;;;;;29.68;54.35;101093.06;5009084;28;65896;-34
2021/03/17 01:05:56;;;;;;;6.10;5.47;;;;;;;29.68;54.24;101099.31;4999332;28;71007;-33
2021/03/17 01:08:26;;;;;;;11.25;5.30;;;;;;;29.70;53.55;101089.13;5015727;28;66613;-33
2021/03/17 01:10:56;;;;;;;5.15;4.63;;;;;;;29.71;54.06;101090.78;5015010;28;69297;-34
2021/03/17 01:13:27;;;;;;;5.30;4.80;;;;;;;29.70;54.04;101081.03;5010404;28;65335;-33
2021/03/17 01:15:57;;;;;;;8.77;5.22;;;;;;;29.72;53.39;101089.72;5005174;28;69168;-33
2021/03/17 01:18:27;;;;;;;5.00;4.38;;;;;;;29.75;53.50;101094.72;5016057;28;65892;-33
2021/03/17 01:20:57;;;;;;;3.58;3.25;;;;;;;29.76;53.71;101101.00;4996186;28;69494;-33
2021/03/17 01:23:27;;;;;;;8.48;3.95;;;;;;;29.77;53.29;101097.22;5007409;28;66215;-33
2021/03/17 01:25:57;;;;;;;4.15;3.75;;;;;;;29.80;53.07;101108.47;5011056;28;69195;-34
2021/03/17 01:28:28;;;;;;;3.63;3.33;;;;;;;29.82;53.08;101106.38;5006892;28;65362;-33
2021/03/17 01:30:59;;;;;;;3.85;3.55;;;;;;;29.85;53.02;101110.53;5012066;28;70180;-33
2021/03/17 01:33:31;;;;;;;4.35;3.95;;;;;;;29.88;52.96;101110.13;5012431;28;65498;-35
2021/03/17 01:36:01;;;;;;;3.58;3.38;;;;;;;29.84;53.21;101109.72;5005748;28;69901;-33
2021/03/17 01:38:31;;;;;;;4.72;3.47;;;;;;;29.91;52.64;101115.13;5005064;28;65594;-32
2021/03/17 01:41:01;;;;;;;5.38;3.08;;;;;;;29.94;52.72;101119.28;5004452;28;70275;-33
2021/03/17 01:43:31;;;;;;;3.80;3.50;;;;;;;29.93;52.92;101123.88;5012705;28;66051;-34
2021/03/17 01:46:01;;;;;;;3.35;3.00;;;;;;;29.97;52.36;101124.28;5009034;28;69466;-33
2021/03/17 01:48:31;;;;;;;3.35;3.05;;;;;;;29.98;52.48;101128.66;5012360;28;65975;-32
2021/03/17 01:51:02;;;;;;;3.05;2.85;;;;;;;30.02;52.87;101127.19;5004686;28;69920;-33
2021/03/17 01:53:35;;;;;;;2.85;2.65;;;;;;;30.04;52.32;101135.94;5010425;28;66815;-33
2021/03/17 01:56:06;;;;;;;6.43;3.30;;;;;;;30.06;52.67;101125.72;5001396;28;69883;-32
2021/03/17 01:58:37;;;;;;;3.58;3.28;;;;;;;30.08;52.65;101131.75;4994125;28;65347;-33
2021/03/17 02:01:07;;;;;;;3.50;3.20;;;;;;;30.11;52.06;101130.50;5013984;28;69884;-33
2021/03/17 02:03:37;;;;;;;3.20;2.92;;;;;;;30.10;52.40;101118.88;5003884;28;65114;-34
2021/03/17 02:06:07;;;;;;;2.97;2.78;;;;;;;30.12;51.90;101122.19;5012080;28;70521;-38
2021/03/17 02:08:41;;;;;;;4.38;3.22;;;;;;;30.14;51.87;101125.50;5011398;28;66172;-35
2021/03/17 02:11:13;;;;;;;3.83;2.90;;;;;;;30.21;52.32;101128.22;4998703;28;69871;-33
2021/03/17 02:13:58;;;;;;;4.40;3.03;;;;;;;30.23;52.18;101129.72;4995256;28;66096;-33
2021/03/17 02:16:30;;;;;;;3.45;3.15;;;;;;;30.26;52.11;101132.00;5009928;28;70814;-33
2021/03/17 02:19:06;;;;;;;3.88;3.58;;;;;;;30.29;51.57;101128.03;5001001;28;66424;-34
2021/03/17 02:22:17;;;;;;;3.67;3.38;;;;;;;30.18;51.55;101115.94;5011910;28;69630;-35
2021/03/17 02:25:17;;;;;;;4.10;3.50;;;;;;;30.31;51.42;101125.94;5006400;28;66544;-33
2021/03/17 02:28:08;;;;;;;3.80;3.50;;;;;;;30.30;51.86;101131.56;5006702;28;69597;-32
2021/03/17 02:30:50;;;;;;;4.25;3.80;;;;;;;30.38;51.73;101137.59;5005600;28;66192;-33
2021/03/17 02:33:38;;;;;;;;;;;;;;;30.35;51.71;101139.88;5011321;28;70724;-32
2021/03/17 02:36:38;;;;;;;4.47;3.35;;;;;;;30.42;51.11;101144.25;4994026;28;66596;-33
2021/03/17 02:39:39;;;;;;;4.82;3.40;;;;;;;30.48;50.82;101131.75;5011987;28;70125;-34
2021/03/17 02:42:23;;;;;;;3.95;3.55;;;;;;;30.46;50.73;101118.41;5009964;28;65792;-33
2021/03/17 02:45:17;;;;;;;4.97;3.72;;;;;;;30.49;51.00;101139.66;4996738;28;69795;-32
2021/03/17 02:47:59;;;;;;;4.35;3.10;;;;;;;30.54;50.85;101130.91;5012713;28;66897;-32
2021/03/17 02:50:35;;;;;;;3.47;3.20;;;;;;;30.59;51.19;101133.81;5012602;28;70551;-34
2021/03/17 02:53:07;;;;;;;3.95;3.25;;;;;;;30.58;51.02;101129.41;5002232;28;66743;-33
2021/03/17 02:55:44;;;;;;;3.50;3.20;;;;;;;30.64;50.63;101128.56;4997163;28;69127;-33
2021/03/17 02:58:15;;;;;;;2.75;2.53;;;;;;;30.66;50.74;101129.19;4992502;28;65994;-33
2021/03/17 03:00:47;;;;;;;3.33;2.70;;;;;;;30.68;50.48;101116.28;5005045;28;69992;-34
2021/03/17 03:03:19;;;;;;;2.92;2.72;;;;;;;30.65;50.30;101111.28;5004213;28;65405;-33
2021/03/17 03:05:50;;;;;;;3.17;2.97;;;;;;;30.73;50.28;101119.19;5001293;28;69967;-34
2021/03/17 03:08:20;;;;;;;3.08;2.67;;;;;;;30.77;50.00;101102.50;4993654;28;65510;-32
2021/03/17 03:10:51;;;;;;;2.70;2.50;;;;;;;30.82;50.35;101100.84;5011694;28;70016;-33
2021/03/17 03:13:23;;;;;;;4.47;2.92;;;;;;;30.82;50.29;101089.19;5008541;28;65797;-32
2021/03/17 03:16:13;;;;;;;6.82;2.75;;;;;;;30.88;50.48;101093.72;4999937;28;70221;-35
2021/03/17 03:18:44;;;;;;;;;;;;;;;30.86;50.22;101093.94;5004998;28;64926;-33
2021/03/17 03:21:17;;;;;;;4.22;2.80;;;;;;;30.89;50.31;101085.38;5007806;28;69280;-33
2021/03/17 03:23:49;;;;;;;3.08;2.65;;;;;;;30.90;50.10;101078.09;5005462;28;66186;-34
2021/03/17 03:26:19;;;;;;;2.53;2.33;;;;;;;31.00;49.56;101092.00;5002399;28;70354;-34
2021/03/17 03:28:51;;;;;;;5.35;2.65;;;;;;;31.00;49.81;101086.56;5003662;28;65923;-33
2021/03/17 03:31:21;;;;;;;5.22;2.83;;;;;;;31.03;49.65;101091.56;5005931;28;69395;-33
2021/03/17 03:33:52;;;;;;;2.50;2.30;;;;;;;31.05;49.85;101072.38;5009421;28;67116;-34
2021/03/17 03:36:24;;;;;;;2.45;2.22;;;;;;;31.09;49.48;101074.47;5009762;28;70205;-33
2021/03/17 03:38:57;;;;;;;2.40;2.20;;;;;;;31.11;49.79;101077.75;5008924;28;65305;-34
2021/03/17 03:41:28;;;;;;;2.78;2.08;;;;;;;31.07;49.56;101054.88;5008217;28;69318;-34
2021/03/17 03:43:59;;;;;;;2.60;2.40;;;;;;;31.14;49.39;101060.25;4991711;28;65927;-33
2021/03/17 03:46:35;;;;;;;2.58;2.38;;;;;;;31.20;49.67;101059.38;5011944;28;70722;-33
2021/03/17 03:49:07;;;;;;;4.57;2.90;;;;;;;31.23;49.39;101055.38;5009219;28;65897;-32
2021/03/17 03:51:47;;;;;;;2.80;2.60;;;;;;;31.26;49.40;101057.66;5014253;28;69401;-33
2021/03/17 03:54:17;;;;;;;3.10;2.90;;;;;;;31.27;49.14;101053.91;5015037;28;66210;-33
2021/03/17 03:57:13;;;;;;;3.80;2.22;;;;;;;31.30;49.01;101045.34;5008882;28;69747;-33
2021/03/17 03:59:47;;;;;;;3.75;2.35;;;;;;;31.26;48.87;101019.72;5012594;28;65284;-35
2021/03/17 04:02:27;;;;;;;4.82;2.70;;;;;;;31.30;49.21;101031.78;5011919;28;69388;-32
2021/03/17 04:05:00;;;;;;;3.92;2.60;;;;;;;31.39;49.42;101027.78;5013963;28;65849;-33
2021/03/17 04:07:32;;;;;;;3.28;2.67;;;;;;;31.41;49.15;101016.75;5013865;28;70313;-34
2021/03/17 04:10:05;;;;;;;;;;;;;;;31.43;48.96;101017.34;5015464;28;66586;-33
2021/03/17 04:12:39;;;;;;;3.20;3.00;;;;;;;31.48;48.69;101003.94;5012614;28;70400;-33
2021/03/17 04:15:11;;;;;;;5.15;3.17;;;;;;;31.54;48.30;101001.19;5011866;28;66151;-39
2021/03/17 04:17:54;;;;;;;2.35;2.17;;;;;;;31.50;48.42;100994.53;5008298;28;69316;-34
2021/03/17 04:20:34;;;;;;;3.42;3.13;;;;;;;31.52;48.35;100984.31;5004954;28;67047;-34
2021/03/17 04:23:07;;;;;;;3.17;2.90;;;;;;;31.57;48.59;100987.19;4998412;28;70565;-33
2021/03/17 04:25:42;;;;;;;3.20;2.90;;;;;;;31.65;48.15;100985.22;5013131;28;65777;-33
2021/03/17 04:28:16;;;;;;;2.95;2.65;;;;;;;31.62;48.53;100970.22;4983227;28;68616;-34
2021/03/17 04:30:47;;;;;;;3.30;3.10;;;;;;;31.65;48.47;100958.09;5010970;28;65488;-34
2021/03/17 04:33:18;;;;;;;3.38;3.17;;;;;;;31.73;48.03;100960.53;4996860;28;69743;-34
2021/03/17 04:35:53;;;;;;;5.30;2.80;;;;;;;31.67;47.97;100945.16;5012891;28;66204;-34
2021/03/17 04:38:26;;;;;;;3.42;3.13;;;;;;;31.71;48.07;100946.38;5010296;28;70258;-35
2021/03/17 04:40:58;;;;;;;3.10;2.90;;;;;;;31.79;47.98;100954.22;4997067;28;65403;-34
2021/03/17 04:43:28;;;;;;;5.40;4.97;;;;;;;31.83;47.88;100956.25;5010196;28;70011;-35
2021/03/17 04:46:02;;;;;;;4.63;4.22;;;;;;;31.85;47.93;100952.50;5008732;28;65868;-33
2021/03/17 04:48:35;;;;;;;4.35;4.05;;;;;;;31.89;47.80;100951.81;5006832;28;69730;-34
2021/03/17 04:51:07;;;;;;;5.75;3.55;;;;;;;31.91;47.51;100938.03;5004815;28;65471;-35
2021/03/17 04:53:38;;;;;;;4.85;3.97;;;;;;;31.87;47.47;100926.78;5006158;28;69844;-34
2021/03/17 04:56:09;;;;;;;3.88;3.50;;;;;;;31.98;47.64;100934.22;4991245;28;65905;-38
2021/03/17 04:58:41;;;;;;;3.28;3.05;;;;;;;32.01;47.45;100933.78;5005924;28;70461;-35
2021/03/17 05:01:12;;;;;;;;;;;;;;;32.05;47.88;100924.09;5007953;28;65641;-34
2021/03/17 05:03:42;;;;;;;3.05;2.85;;;;;;;32.12;47.44;100925.91;5008432;28;69901;-35
2021/03/17 05:06:14;;;;;;;3.80;2.97;;;;;;;32.10;47.62;100914.47;5009508;28;66178;-33
2021/03/17 05:08:45;;;;;;;3.05;2.85;;;;;;;32.11;47.54;100914.22;5008602;28;69875;-43
2021/03/17 05:11:16;;;;;;;;;;;;;;;32.15;47.05;100918.16;5006582;28;66289;-34
2021/03/17 05:13:46;;;;;;;3.40;3.10;;;;;;;32.22;47.33;100915.34;5004882;28;70995;-34
2021/03/17 05:16:17;;;;;;;3.38;3.08;;;;;;;32.24;47.28;100907.81;5015844;28;65408;-33
2021/03/17 05:18:49;;;;;;;4.33;2.97;;;;;;;32.26;47.33;100911.09;5008296;28;69343;-34
2021/03/17 05:21:21;;;;;;;2.90;2.70;;;;;;;32.25;47.00;100904.03;5016188;28;66257;-33
2021/03/17 05:23:51;;;;;;;4.65;2.70;;;;;;;32.31;47.35;100897.66;5013567;28;69839;-33
2021/03/17 05:26:23;;;;;;;3.15;2.95;;;;;;;32.27;46.92;100882.91;5012332;28;66105;-34
2021/03/17 05:28:58;;;;;;;3.75;2.80;;;;;;;32.35;46.85;100888.03;5013758;28;69295;-35
2021/03/17 05:31:30;;;;;;;3.92;3.55;;;;;;;32.37;46.66;100891.31;4987158;28;66671;-34
2021/03/17 05:34:01;;;;;;;4.00;3.70;;;;;;;32.43;46.78;100881.41;5014305;28;69368;-33
2021/03/17 05:36:31;;;;;;;4.65;4.18;;;;;;;32.45;47.06;100876.59;5010353;28;65859;-33
2021/03/17 05:39:03;;;;;;;3.72;3.53;;;;;;;32.47;46.74;100875.34;5016001;28;70198;-33
2021/03/17 05:41:36;;;;;;;3.42;3.22;;;;;;;32.46;46.34;100868.25;5011155;28;65270;-33
2021/03/17 05:44:09;;;;;;;4.05;3.60;;;;;;;32.52;47.00;100861.06;5011655;28;69425;-34
2021/03/17 05:46:43;;;;;;;3.90;3.60;;;;;;;32.50;46.79;100857.75;5005934;28;65886;-33
2021/03/17 05:49:15;;;;;;;5.50;3.70;;;;;;;32.54;46.63;100858.97;5006938;28;69618;-33
2021/03/17 05:51:47;;;;;;;3.25;3.05;;;;;;;32.61;46.67;100850.72;5007063;28;65764;-32
2021/03/17 05:54:19;;;;;;;3.47;3.17;;;;;;;32.60;46.73;100846.34;5009775;28;69473;-33
2021/03/17 05:56:52;;;;;;;3.93;3.63;;;;;;;32.60;46.59;100830.06;4998086;28;65156;-33
2021/03/17 05:59:26;;;;;;;3.33;3.03;;;;;;;32.63;46.22;100829.59;5008951;28;70340;-33
2021/03/17 06:01:58;;;;;;;2.97;2.78;;;;;;;32.72;46.25;100833.59;5006531;28;65234;-34
2021/03/17 06:04:31;;;;;;;2.60;2.42;;;;;;;32.73;46.27;100827.09;5012046;28;70077;-34
2021/03/17 06:07:02;;;;;;;;;;;;;;;32.72;46.38;100828.16;5010827;28;66073;-32
2021/03/17 06:09:34;;;;;;;3.03;2.67;;;;;;;32.79;46.63;100823.47;5008285;28;70027;-35
2021/03/17 06:12:08;;;;;;;2.97;2.83;;;;;;;32.76;46.25;100807.59;5007960;28;65228;-34
2021/03/17 06:14:43;;;;;;;2.88;2.67;;;;;;;32.72;46.21;100795.56;5000946;28;69997;-33
2021/03/17 06:17:19;;;;;;;2.67;2.47;;;;;;;32.79;46.06;100807.16;4995589;28;66096;-33
2021/03/17 06:19:59;;;;;;;2.58;2.38;;;;;;;32.89;46.36;100801.13;5012320;28;69257;-33
2021/03/17 06:22:29;;;;;;;5.68;2.75;;;;;;;32.91;46.18;100799.84;5008432;28;65138;-33
2021/03/17 06:25:03;;;;;;;3.65;2.72;;;;;;;32.94;45.71;100798.53;5015467;28;69195;-34
2021/03/17 06:27:41;;;;;;;3.17;2.88;;;;;;;32.94;46.16;100799.34;5011756;28;64573;-34
2021/03/17 06:30:12;;;;;;;3.30;3.10;;;;;;;32.87;45.80;100755.16;5010993;28;70204;-34
2021/03/17 06:32:42;;;;;;;3.70;3.27;;;;;;;33.04;45.63;100776.22;5010681;28;66120;-32
2021/03/17 06:35:21;;;;;;;3.50;3.20;;;;;;;32.98;45.69;100760.84;5010199;28;70493;-33
2021/03/17 06:37:55;;;;;;;3.90;3.60;;;;;;;33.10;45.64;100769.88;4998587;28;66544;-33
2021/03/17 06:40:32;;;;;;;3.97;3.20;;;;;;;33.10;45.85;100761.72;4996053;28;68409;-33
2021/03/17 06:43:13;;;;;;;4.57;3.42;;;;;;;33.11;45.61;100752.47;5012057;28;66719;-33
2021/03/17 06:45:49;;;;;;;3.58;3.30;;;;;;;33.11;45.52;100739.72;5002387;28;70391;-33
2021/03/17 06:48:28;;;;;;;3.15;2.85;;;;;;;33.22;45.25;100751.63;5011514;28;65075;-33
2021/03/17 06:51:04;;;;;;;3.33;3.13;;;;;;;33.29;45.46;100746.91;5005859;28;70377;-34
2021/03/17 06:53:49;;;;;;;3.35;3.15;;;;;;;33.32;45.28;100740.97;5016384;28;66049;-33
2021/03/17 06:56:26;;;;;;;3.50;3.22;;;;;;;33.36;44.99;100733.97;5011496;28;70692;-34
2021/03/17 06:59:04;;;;;;;3.97;3.70;;;;;;;33.28;44.95;100712.59;5003078;28;66254;-35
2021/03/17 07:01:42;;;;;;;3.88;3.58;;;;;;;33.40;45.17;100725.34;4987429;28;69985;-33
2021/03/17 07:04:17;;;;;;;3.45;3.20;;;;;;;33.43;45.25;100711.25;5003337;28;65366;-33
2021/03/17 07:06:49;;;;;;;5.25;3.63;;;;;;;33.48;44.96;100711.34;5003986;28;69380;-33
2021/03/17 07:09:27;;;;;;;3.60;3.30;;;;;;;33.50;45.04;100711.94;5009445;28;66797;-33
2021/03/17 07:12:09;;;;;;;3.03;2.83;;;;;;;33.50;44.73;100709.22;5006313;28;70633;-33
2021/03/17 07:14:43;;;;;;;4.88;3.42;;;;;;;33.55;44.83;100702.03;5013523;28;66642;-32
2021/03/17 07:17:28;;;;;;;3.63;3.42;;;;;;;33.54;44.70;100699.53;5013134;28;69213;-33
2021/03/17 07:20:06;;;;;;;3.35;3.15;;;;;;;33.62;45.21;100698.34;5012885;28;66248;-33
2021/03/17 07:22:37;;;;;;;3.22;3.03;;;;;;;33.61;44.74;100692.06;5006211;28;70142;-35
2021/03/17 07:25:08;;;;;;;3.83;3.00;;;;;;;33.65;44.66;100685.06;5009458;28;65069;-34
2021/03/17 07:27:40;;;;;;;3.55;3.35;;;;;;;33.71;44.68;100689.56;5007319;28;70269;-33
2021/03/17 07:30:12;;;;;;;3.15;2.88;;;;;;;33.75;44.61;100687.97;5009828;28;66569;-33
2021/03/17 07:33:03;;;;;;;4.63;3.72;;;;;;;33.74;44.38;100680.91;5012846;28;70496;-33
2021/03/17 07:35:39;;;;;;;3.03;2.83;;;;;;;33.78;44.55;100692.94;5006843;28;66933;-46
2021/03/17 07:38:12;;;;;;;4.85;3.17;;;;;;;33.84;45.04;100684.84;5012447;28;70072;-33
2021/03/17 07:40:43;;;;;;;8.20;3.03;;;;;;;33.86;44.55;100690.88;5011827;28;65912;-35
2021/03/17 07:43:17;;;;;;;3.50;3.20;;;;;;;33.88;44.33;100686.00;5010339;28;70992;-34
2021/03/17 07:45:48;;;;;;;2.95;2.75;;;;;;;33.88;44.67;100683.28;5015956;28;66264;-33
2021/03/17 07:48:20;;;;;;;3.23;2.97;;;;;;;33.92;44.52;100674.38;5015599;28;69771;-35
2021/03/17 07:50:53;;;;;;;3.22;3.03;;;;;;;33.99;44.51;100671.50;5010067;28;66230;-34
2021/03/17 07:53:26;;;;;;;3.60;2.63;;;;;;;34.00;44.69;100679.44;5012816;28;69647;-38
2021/03/17 07:55:58;;;;;;;3.35;3.03;;;;;;;34.05;44.59;100676.00;4983830;28;65404;-33
2021/03/17 07:58:29;;;;;;;6.07;2.80;;;;;;;34.09;44.69;100673.59;4992244;28;69861;-33
2021/03/17 08:00:59;;;;;;;5.07;3.35;;;;;;;34.10;44.44;100659.78;5004702;28;65565;-39
2021/03/17 08:03:32;;;;;;;2.92;2.40;;;;;;;34.15;44.56;100668.00;5009534;28;70243;-34
2021/03/17 08:06:02;;;;;;;2.63;2.43;;;;;;;34.20;44.34;100669.97;5006647;28;66221;-34
2021/03/17 08:08:34;;;;;;;2.60;2.40;;;;;;;34.23;44.27;100670.31;5004577;28;69894;-34
2021/03/17 08:11:05;;;;;;;3.00;2.70;;;;;;;34.25;44.44;100665.44;4977839;28;64698;-33
2021/03/17 08:13:36;;;;;;;5.00;2.80;;;;;;;34.31;44.29;100665.53;4996821;28;69770;-33
2021/03/17 08:16:07;;;;;;;2.53;2.33;;;;;;;34.34;44.21;100665.03;5000373;28;65663;-33
2021/03/17 08:18:41;;;;;;;3.20;3.00;;;;;;;34.39;44.40;100662.38;5010061;28;70733;-33
2021/03/17 08:21:13;;;;;;;2.47;2.28;;;;;;;34.42;44.08;100654.53;5008549;28;66003;-33
2021/03/17 08:23:44;;;;;;;2.63;2.42;;;;;;;34.46;43.96;100652.13;5006950;28;69386;-35
2021/03/17 08:26:36;;;;;;;2.20;2.00;;;;;;;34.52;44.05;100661.19;5000360;28;65293;-32
2021/03/17 08:29:14;;;;;;;2.45;2.25;;;;;;;34.54;44.01;100657.13;5004979;28;69756;-36
2021/03/17 08:31:48;;;;;;;2.67;2.17;;;;;;;34.55;43.87;100661.53;5002248;28;65494;-34
2021/03/17 08:34:21;;;;;;;2.42;2.22;;;;;;;34.61;43.56;100648.84;5012654;28;70325;-34
2021/03/17 08:36:56;;;;;;;5.63;2.35;;;;;;;34.62;43.93;100645.84;5011984;28;66388;-33
2021/03/17 08:39:32;;;;;;;5.65;2.83;;;;;;;34.67;43.93;100651.38;5010885;28;69257;-34
2021/03/17 08:42:07;;;;;;;3.03;2.47;;;;;;;34.70;43.91;100650.84;5008815;28;65491;-33
2021/03/17 08:44:40;;;;;;;3.42;2.20;;;;;;;34.75;43.79;100649.28;5011574;28;69622;-33
2021/03/17 08:47:30;;;;;;;2.40;2.17;;;;;;;34.79;43.70;100650.44;5003050;28;65836;-34
2021/03/17 08:50:16;;;;;;;4.30;2.13;;;;;;;34.81;43.32;100637.38;4996446;28;70807;-32
2021/03/17 08:52:51;;;;;;;3.65;2.58;;;;;;;34.87;43.65;100647.25;5011012;28;66060;-33
2021/03/17 08:55:22;;;;;;;2.50;2.30;;;;;;;34.90;43.55;100646.75;4998034;28;70120;-33
2021/03/17 08:58:06;;;;;;;3.13;2.47;;;;;;;34.91;43.39;100642.97;5017263;28;65356;-34
2021/03/17 09:00:58;;;;;;;2.60;2.40;;;;;;;34.98;43.32;100632.69;5017366;28;69355;-33
2021/03/17 09:03:46;;;;;;;4.28;2.97;;;;;;;34.96;43.51;100634.81;5006311;28;65410;-33
2021/03/17 09:06:24;;;;;;;3.88;2.28;;;;;;;34.97;43.31;100636.50;5000617;28;69519;-33
2021/03/17 09:09:17;;;;;;;2.55;2.35;;;;;;;34.99;43.27;100634.31;5009567;28;65966;-32
2021/03/17 09:11:49;;;;;;;2.70;2.35;;;;;;;35.12;43.76;100644.88;5016541;28;70065;-33
2021/03/17 09:14:27;;;;;;;2.38;2.17;;;;;;;35.04;42.94;100631.66;5019400;28;65863;-33
2021/03/17 09:17:14;;;;;;;2.92;2.45;;;;;;;35.19;43.48;100649.28;5017859;28;70681;-32
2021/03/17 09:20:11;;;;;;;3.10;2.58;;;;;;;35.20;43.22;100646.31;5017874;28;66027;-33
2021/03/17 09:22:46;;;;;;;4.05;2.63;;;;;;;35.18;42.97;100632.13;5016643;28;69317;-34
2021/03/17 09:25:23;;;;;;;3.22;2.92;;;;;;;35.23;43.22;100651.25;5018422;28;65438;-33
2021/03/17 09:28:11;;;;;;;6.15;3.22;;;;;;;35.25;43.20;100659.19;5003794;28;70050;-36
2021/03/17 09:30:48;;;;;;;5.55;2.92;;;;;;;35.23;43.00;100655.91;5024220;28;66064;-33
2021/03/17 09:33:40;;;;;;;4.05;3.20;;;;;;;35.24;43.04;100657.53;5022112;28;69988;-34
2021/03/17 09:36:20;;;;;;;;;;;;;;;35.32;43.04;100652.44;5015172;28;65959;-35
2021/03/17 09:38:55;;;;;;;3.03;2.70;;;;;;;35.38;43.05;100661.50;5005779;28;70456;-33
2021/03/17 09:41:34;;;;;;;2.97;2.78;;;;;;;35.38;42.99;100664.22;5025403;28;66421;-35
2021/03/17 09:44:06;;;;;;;5.18;3.05;;;;;;;35.35;42.91;100662.88;5011000;28;68957;-34
2021/03/17 09:46:46;;;;;;;2.60;2.40;;;;;;;35.36;43.09;100659.06;5018826;28;66068;-32
2021/03/17 09:49:21;;;;;;;5.55;3.33;;;;;;;35.36;42.98;100666.41;5018387;28;69687;-34
2021/03/17 09:52:14;;;;;;;5.35;3.47;;;;;;;35.37;42.73;100673.50;5009733;28;66251;-34
2021/03/17 09:55:00;;;;;;;6.20;3.30;;;;;;;35.36;43.28;100671.88;5020157;28;70549;-34
2021/03/17 09:57:31;;;;;;;3.50;3.00;;;;;;;35.36;43.42;100672.69;5018318;28;66320;-34
2021/03/17 10:00:01;;;;;;;3.28;2.92;;;;;;;35.40;42.90;100683.09;5009750;28;68706;-35
2021/03/17 10:02:46;;;;;;;4.10;2.95;;;;;;;35.29;42.77;100677.50;5011315;28;66033;-34
2021/03/17 10:05:18;;;;;;;3.67;3.10;;;;;;;35.38;43.13;100685.22;5012327;28;70509;-33
2021/03/17 10:07:48;;;;;;;3.97;2.90;;;;;;;35.39;43.01;100682.25;5013725;28;66151;-34
2021/03/17 10:10:28;;;;;;;2.92;2.63;;;;;;;35.38;43.33;100685.22;4998911;28;70107;-35
2021/03/17 10:13:00;;;;;;;4.32;2.72;;;;;;;35.37;42.77;100695.31;5017976;28;66836;-34
2021/03/17 10:15:32;;;;;;;3.17;2.53;;;;;;;35.39;43.07;100698.63;4995562;28;70257;-35
2021/03/17 10:18:04;;;;;;;4.37;2.30;;;;;;;35.39;42.79;100698.63;4994456;28;65822;-34
2021/03/17 10:20:40;;;;;;;3.17;2.42;;;;;;;35.33;43.11;100694.19;5015153;28;69053;-34
2021/03/17 10:23:13;;;;;;;2.58;2.38;;;;;;;35.35;43.16;100694.75;5013513;28;65809;-34
2021/03/17 10:25:44;;;;;;;2.47;2.28;;;;;;;35.32;43.10;100703.44;4993273;28;70374;-33
2021/03/17 10:28:36;;;;;;;3.50;2.65;;;;;;;35.31;43.30;100708.06;5012885;28;65455;-33
2021/03/17 10:31:06;;;;;;;6.50;2.53;;;;;;;35.26;43.47;100701.75;5014556;28;72339;-35
2021/03/17 10:33:37;;;;;;;4.20;2.47;;;;;;;35.26;43.61;100705.28;5017700;28;66504;-34
2021/03/17 10:36:09;;;;;;;4.73;2.57;;;;;;;35.25;43.61;100713.75;5016975;28;69769;-35
2021/03/17 10:38:39;;;;;;;;;;;;;;;35.25;43.86;100702.84;5019189;28;65987;-34
2021/03/17 10:41:08;;;;;;;31.35;6.32;;;;;;;35.06;44.40;100700.41;5016964;28;70157;-34
2021/03/17 10:43:38;;;;;;;14.88;7.55;;;;;;;34.80;44.72;100701.97;5016810;28;65162;-34
2021/03/17 10:46:08;;;;;;;18.52;8.52;;;;;;;34.69;45.15;100717.34;5010452;28;69945;-34
2021/03/17 10:48:43;;;;;;;10.32;7.78;;;;;;;34.62;45.08;100704.94;5016707;28;65877;-36
2021/03/17 10:51:13;;;;;;;15.35;7.80;;;;;;;34.68;45.06;100715.66;5016591;28;70682;-34
2021/03/17 10:53:44;;;;;;;11.98;7.97;;;;;;;34.64;45.36;100709.09;5013340;28;65888;-39
2021/03/17 10:56:16;;;;;;;19.48;8.77;;;;;;;34.68;45.68;100720.28;5013967;28;69323;-35
2021/03/17 10:58:49;;;;;;;19.10;8.40;;;;;;;34.51;46.29;100731.19;5014292;28;66449;-37
2021/03/17 11:01:23;;;;;;;11.48;8.20;;;;;;;34.32;46.75;100729.78;5015169;28;69865;-34
2021/03/17 11:04:07;;;;;;;14.98;8.27;;;;;;;34.19;47.34;100728.22;5014609;28;65089;-35
2021/03/17 11:06:37;;;;;;;13.13;7.60;;;;;;;34.15;47.15;100727.88;5008547;28;69906;-37
2021/03/17 11:09:24;;;;;;;19.52;7.97;;;;;;;34.09;46.99;100719.88;5053867;28;43888;-36
2021/03/17 11:11:54;;;;;;;12.35;7.25;;;;;;;34.05;47.25;100726.91;5055610;28;69449;-37
2021/03/17 11:14:37;;;;;;;15.27;7.63;;;;;;;33.96;47.69;100730.00;5041723;28;66305;-36
2021/03/17 11:17:09;;;;;;;24.33;7.53;;;;;;;33.95;47.71;100735.66;5052372;28;69935;-37
2021/03/17 11:19:42;;;;;;;19.58;8.02;;;;;;;33.92;47.62;100733.44;5051258;27;65190;-35
2021/03/17 11:22:33;;;;;;;15.90;7.65;;;;;;;33.85;47.91;100738.19;5048036;28;69644;-36
2021/03/17 11:25:07;;;;;;;10.80;7.50;;;;;;;33.75;47.80;100734.22;5051644;28;65324;-35
2021/03/17 11:27:39;;;;;;;29.48;8.70;;;;;;;33.84;47.72;100750.16;5050997;28;69705;-38
2021/03/17 11:30:10;;;;;;;26.48;8.55;;;;;;;33.84;47.66;100748.25;5053562;28;65654;-36
2021/03/17 11:32:40;;;;;;;17.58;7.38;;;;;;;33.78;48.14;100747.34;5053238;28;70134;-37
2021/03/17 11:35:13;;;;;;;17.02;8.50;;;;;;;33.74;47.93;100751.63;5051459;28;65917;-36
2021/03/17 11:37:42;;;;;;;22.60;9.10;;;;;;;33.72;47.77;100758.38;5052456;28;68835;-36
2021/03/17 11:40:13;;;;;;;21.83;8.95;;;;;;;33.68;47.50;100755.28;5049098;28;65399;-37
2021/03/17 11:42:42;;;;;;;16.58;8.13;;;;;;;33.65;47.84;100760.41;5053377;27;69147;-36
2021/03/17 11:45:17;;;;;;;9.73;7.13;;;;;;;33.58;48.27;100753.22;5051800;28;65525;-36
2021/03/17 11:47:46;;;;;;;9.57;7.50;;;;;;;33.47;48.29;100750.50;5052755;28;70008;-36
2021/03/17 11:50:16;;;;;;;10.18;6.65;;;;;;;33.49;48.41;100757.38;5053419;27;66717;-35
2021/03/17 11:52:53;;;;;;;13.43;7.13;;;;;;;33.44;48.44;100754.53;5052528;28;69722;-37
2021/03/17 11:55:23;;;;;;;13.98;6.88;;;;;;;33.43;48.30;100763.75;5053693;27;66077;-37
2021/03/17 11:57:53;;;;;;;13.63;7.53;;;;;;;33.36;48.31;100777.47;5053093;28;70203;-37
2021/03/17 12:00:31;;;;;;;19.92;8.15;;;;;;;33.35;48.93;100778.56;5052358;28;64423;-36
2021/03/17 12:03:00;;;;;;;10.95;7.53;;;;;;;33.28;48.74;100783.28;5047971;28;69311;-39
2021/03/17 12:05:31;;;;;;;18.45;8.55;;;;;;;33.25;48.41;100789.22;5052890;27;65343;-37
2021/03/17 12:08:01;;;;;;;18.60;8.70;;;;;;;33.15;48.96;100786.25;5053029;27;68903;-36